Amber Beverly — VRHK5 — position and weather

sailwx.info

Track history (hours):
 
Tides and Currents Weather Stations Pressure Air Temp Water Temp Dewpoint Dewpoint Depression Visibility Wind Speed Wind Dir Waves Ship Positions

Amber Beverly

Last reported at 2015-Apr-27 05:33 UTC. Time now 2015-Apr-27 20:41 UTC.
Position N 34°47' E 120°00'.

Length 190 m; draft 10.6 m.

Type: Cargo ship. MMSI: 477317100.

Date/timePositionNaut miles runAvg speedWind from/ knotsBaromVisibWave heightAir tempDewpointWater temp
2015-Apr-27 05:33N 34°47' E 120°00'24 0.8
2015-Apr-26 01:09N 34°26' E 119°48'7 0.3
2015-Apr-25 03:33N 34°33' E 119°50'9 9.0
2015-Apr-25 02:33N 34°38' E 119°59'3 2.8
2015-Apr-25 01:32N 34°38' E 120°03'0 0.1
2015-Apr-25 00:32N 34°38' E 120°03'0 0.0
2015-Apr-24 23:14N 34°38' E 120°03'0 0.0
2015-Apr-24 22:26N 34°38' E 120°03'0 0.1
2015-Apr-24 19:32N 34°38' E 120°03'0 0.1
2015-Apr-24 18:32N 34°38' E 120°03'0 0.0
2015-Apr-24 17:32N 34°38' E 120°03'0 0.0
2015-Apr-24 16:32N 34°38' E 120°03'0 0.0
2015-Apr-24 15:32N 34°38' E 120°03'0 0.0
2015-Apr-24 14:20N 34°38' E 120°03'0 0.1
2015-Apr-24 13:32N 34°38' E 120°03'0 0.2
2015-Apr-24 12:32N 34°38' E 120°03'0 0.1
2015-Apr-24 11:26N 34°38' E 120°03'0 0.0
2015-Apr-24 08:20N 34°38' E 120°03'0 0.3
2015-Apr-24 07:32N 34°38' E 120°03'0 0.1
2015-Apr-24 06:32N 34°38' E 120°03'5 5.5
2015-Apr-24 05:33N 34°41' E 119°58'8 7.8
2015-Apr-24 04:33N 34°47' E 119°51'8 7.6
2015-Apr-24 03:33N 34°53' E 119°45'1 1.1
2015-Apr-24 02:33N 34°54' E 119°45'0 0.0
2015-Apr-23 18:08N 34°54' E 119°45'0 0.0
2015-Apr-23 17:32N 34°54' E 119°45'0 0.0
2015-Apr-23 16:26N 34°54' E 119°45'0 0.0
2015-Apr-23 15:26N 34°54' E 119°45'0 0.0
2015-Apr-23 06:09N 34°54' E 119°45'0 0.0
2015-Apr-23 01:27N 34°54' E 119°45'0 0.0
2015-Apr-22 19:21N 34°54' E 119°45'0 0.1
2015-Apr-22 18:33N 34°54' E 119°45'0 0.0
2015-Apr-22 17:33N 34°54' E 119°45'0 0.1
2015-Apr-22 16:27N 34°54' E 119°45'0 0.0
2015-Apr-22 15:33N 34°54' E 119°45'0 0.0
2015-Apr-22 14:33N 34°54' E 119°45'0 0.0
2015-Apr-22 13:33N 34°54' E 119°45'0 0.1
2015-Apr-22 11:09N 34°54' E 119°45'0 0.0
2015-Apr-22 08:33N 34°54' E 119°45'0 0.1
2015-Apr-22 07:27N 34°54' E 119°45'0 0.1
2015-Apr-22 06:21N 34°54' E 119°45'0 0.0
2015-Apr-22 05:33N 34°54' E 119°45'0 0.1
2015-Apr-22 04:33N 34°54' E 119°45'0 0.0
2015-Apr-22 03:33N 34°54' E 119°45'0 0.0
2015-Apr-22 02:27N 34°54' E 119°45'0 0.0
2015-Apr-22 01:15N 34°54' E 119°45'0 0.1
2015-Apr-22 00:33N 34°54' E 119°45'0 0.1
2015-Apr-21 22:15N 34°54' E 119°45'0 0.0
2015-Apr-21 21:27N 34°54' E 119°45'0 0.0
2015-Apr-21 17:21N 34°54' E 119°45'3 4.1
2015-Apr-21 16:33N 34°51' E 119°42'16 1.1
2015-Apr-21 01:18N 34°45' E 119°24'0 0.0
2015-Apr-21 00:18N 34°45' E 119°24'0 0.0
2015-Apr-20 23:24N 34°45' E 119°24'0 0.1
2015-Apr-20 22:33N 34°45' E 119°24'7 6.9
2015-Apr-20 21:29N 34°45' E 119°33'10 9.4
2015-Apr-20 20:24N 34°51' E 119°44'3 1.6
2015-Apr-20 18:17N 34°54' E 119°46'0 0.1
2015-Apr-20 17:11N 34°54' E 119°46'0 0.1
2015-Apr-20 16:29N 34°54' E 119°46'0 0.0
2015-Apr-20 15:17N 34°54' E 119°46'0 0.0
2015-Apr-20 12:29N 34°54' E 119°46'0 0.0
2015-Apr-20 03:29N 34°54' E 119°46'0 0.0
2015-Apr-20 02:23N 34°54' E 119°46'0 0.1
2015-Apr-20 01:23N 34°54' E 119°46'0 0.0
2015-Apr-19 17:23N 34°54' E 119°46'0 0.1
2015-Apr-19 14:23N 34°54' E 119°46'0 0.0
2015-Apr-19 09:17N 34°54' E 119°46'0 0.0
2015-Apr-18 01:17N 34°54' E 119°46'0 0.1
2015-Apr-18 00:29N 34°54' E 119°46'0 0.0
2015-Apr-17 23:23N 34°54' E 119°46'0 0.0
2015-Apr-17 22:29N 34°54' E 119°46'0 0.1
2015-Apr-17 21:29N 34°54' E 119°46'0 0.0
2015-Apr-17 20:29N 34°54' E 119°46'0 0.1
2015-Apr-17 19:29N 34°54' E 119°46'0 0.1
2015-Apr-17 17:05N 34°54' E 119°46'0 0.1
2015-Apr-17 16:29N 34°54' E 119°46'0 0.1
2015-Apr-17 15:23N 34°54' E 119°46'0 0.1
2015-Apr-17 14:29N 34°54' E 119°46'0 0.1
2015-Apr-17 13:29N 34°54' E 119°46'0 0.0
2015-Apr-17 12:29N 34°54' E 119°46'0 0.0
2015-Apr-17 11:23N 34°54' E 119°46'0 0.0
2015-Apr-17 10:23N 34°54' E 119°46'0 0.2
2015-Apr-17 09:29N 34°54' E 119°46'0 0.0
2015-Apr-17 08:29N 34°54' E 119°46'0 0.0
2015-Apr-17 07:23N 34°54' E 119°46'0 0.1
2015-Apr-17 06:17N 34°54' E 119°46'  
Track history (hours):
 
Tides and Currents Weather Stations Pressure Air Temp Water Temp Dewpoint Dewpoint Depression Visibility Wind Speed Wind Dir Waves Ship Positions

Amber Beverly

Last reported at 2015-Apr-27 05:33 UTC. Time now 2015-Apr-27 20:41 UTC.
Position N 34°47' E 120°00'.

Length 190 m; draft 10.6 m.

Type: Cargo ship. MMSI: 477317100.

Date/timePositionNaut miles runAvg speedWind from/ knotsBaromVisibWave heightAir tempDewpointWater temp
2015-Apr-27 05:33N 34°47' E 120°00'24 0.8
2015-Apr-26 01:09N 34°26' E 119°48'7 0.3
2015-Apr-25 03:33N 34°33' E 119°50'9 9.0
2015-Apr-25 02:33N 34°38' E 119°59'3 2.8
2015-Apr-25 01:32N 34°38' E 120°03'0 0.1
2015-Apr-25 00:32N 34°38' E 120°03'0 0.0
2015-Apr-24 23:14N 34°38' E 120°03'0 0.0
2015-Apr-24 22:26N 34°38' E 120°03'0 0.1
2015-Apr-24 19:32N 34°38' E 120°03'0 0.1
2015-Apr-24 18:32N 34°38' E 120°03'0 0.0
2015-Apr-24 17:32N 34°38' E 120°03'0 0.0
2015-Apr-24 16:32N 34°38' E 120°03'0 0.0
2015-Apr-24 15:32N 34°38' E 120°03'0 0.0
2015-Apr-24 14:20N 34°38' E 120°03'0 0.1
2015-Apr-24 13:32N 34°38' E 120°03'0 0.2
2015-Apr-24 12:32N 34°38' E 120°03'0 0.1
2015-Apr-24 11:26N 34°38' E 120°03'0 0.0
2015-Apr-24 08:20N 34°38' E 120°03'0 0.3
2015-Apr-24 07:32N 34°38' E 120°03'0 0.1
2015-Apr-24 06:32N 34°38' E 120°03'5 5.5
2015-Apr-24 05:33N 34°41' E 119°58'8 7.8
2015-Apr-24 04:33N 34°47' E 119°51'8 7.6
2015-Apr-24 03:33N 34°53' E 119°45'1 1.1
2015-Apr-24 02:33N 34°54' E 119°45'0 0.0
2015-Apr-23 18:08N 34°54' E 119°45'0 0.0
2015-Apr-23 17:32N 34°54' E 119°45'0 0.0
2015-Apr-23 16:26N 34°54' E 119°45'0 0.0
2015-Apr-23 15:26N 34°54' E 119°45'0 0.0
2015-Apr-23 06:09N 34°54' E 119°45'0 0.0
2015-Apr-23 01:27N 34°54' E 119°45'0 0.0
2015-Apr-22 19:21N 34°54' E 119°45'0 0.1
2015-Apr-22 18:33N 34°54' E 119°45'0 0.0
2015-Apr-22 17:33N 34°54' E 119°45'0 0.1
2015-Apr-22 16:27N 34°54' E 119°45'0 0.0
2015-Apr-22 15:33N 34°54' E 119°45'0 0.0
2015-Apr-22 14:33N 34°54' E 119°45'0 0.0
2015-Apr-22 13:33N 34°54' E 119°45'0 0.1
2015-Apr-22 11:09N 34°54' E 119°45'0 0.0
2015-Apr-22 08:33N 34°54' E 119°45'0 0.1
2015-Apr-22 07:27N 34°54' E 119°45'0 0.1
2015-Apr-22 06:21N 34°54' E 119°45'0 0.0
2015-Apr-22 05:33N 34°54' E 119°45'0 0.1
2015-Apr-22 04:33N 34°54' E 119°45'0 0.0
2015-Apr-22 03:33N 34°54' E 119°45'0 0.0
2015-Apr-22 02:27N 34°54' E 119°45'0 0.0
2015-Apr-22 01:15N 34°54' E 119°45'0 0.1
2015-Apr-22 00:33N 34°54' E 119°45'0 0.1
2015-Apr-21 22:15N 34°54' E 119°45'0 0.0
2015-Apr-21 21:27N 34°54' E 119°45'0 0.0
2015-Apr-21 17:21N 34°54' E 119°45'3 4.1
2015-Apr-21 16:33N 34°51' E 119°42'16 1.1
2015-Apr-21 01:18N 34°45' E 119°24'0 0.0
2015-Apr-21 00:18N 34°45' E 119°24'0 0.0
2015-Apr-20 23:24N 34°45' E 119°24'0 0.1
2015-Apr-20 22:33N 34°45' E 119°24'7 6.9
2015-Apr-20 21:29N 34°45' E 119°33'10 9.4
2015-Apr-20 20:24N 34°51' E 119°44'3 1.6
2015-Apr-20 18:17N 34°54' E 119°46'0 0.1
2015-Apr-20 17:11N 34°54' E 119°46'0 0.1
2015-Apr-20 16:29N 34°54' E 119°46'0 0.0
2015-Apr-20 15:17N 34°54' E 119°46'0 0.0
2015-Apr-20 12:29N 34°54' E 119°46'0 0.0
2015-Apr-20 03:29N 34°54' E 119°46'0 0.0
2015-Apr-20 02:23N 34°54' E 119°46'0 0.1
2015-Apr-20 01:23N 34°54' E 119°46'0 0.0
2015-Apr-19 17:23N 34°54' E 119°46'0 0.1
2015-Apr-19 14:23N 34°54' E 119°46'0 0.0
2015-Apr-19 09:17N 34°54' E 119°46'0 0.0
2015-Apr-18 01:17N 34°54' E 119°46'0 0.1
2015-Apr-18 00:29N 34°54' E 119°46'0 0.0
2015-Apr-17 23:23N 34°54' E 119°46'0 0.0
2015-Apr-17 22:29N 34°54' E 119°46'0 0.1
2015-Apr-17 21:29N 34°54' E 119°46'0 0.0
2015-Apr-17 20:29N 34°54' E 119°46'0 0.1
2015-Apr-17 19:29N 34°54' E 119°46'0 0.1
2015-Apr-17 17:05N 34°54' E 119°46'0 0.1
2015-Apr-17 16:29N 34°54' E 119°46'0 0.1
2015-Apr-17 15:23N 34°54' E 119°46'0 0.1
2015-Apr-17 14:29N 34°54' E 119°46'0 0.1
2015-Apr-17 13:29N 34°54' E 119°46'0 0.0
2015-Apr-17 12:29N 34°54' E 119°46'0 0.0
2015-Apr-17 11:23N 34°54' E 119°46'0 0.0
2015-Apr-17 10:23N 34°54' E 119°46'0 0.2
2015-Apr-17 09:29N 34°54' E 119°46'0 0.0
2015-Apr-17 08:29N 34°54' E 119°46'0 0.0
2015-Apr-17 07:23N 34°54' E 119°46'0 0.1
2015-Apr-17 06:17N 34°54' E 119°46'  

Dump ship's entire track history